sensor_id;sensor_type;location;lat;lon;timestamp;P1;durP1;ratioP1;P2;durP2;ratioP2
14346;SDS011;7257;52.158;9.968;2022-08-19T00:00:13;8.77;;;5.28;;
14346;SDS011;7257;52.158;9.968;2022-08-19T00:00:34;8.57;;;5.30;;
14346;SDS011;7257;52.158;9.968;2022-08-19T00:00:55;7.43;;;5.20;;
14346;SDS011;7257;52.158;9.968;2022-08-19T00:01:16;6.28;;;5.65;;
14346;SDS011;7257;52.158;9.968;2022-08-19T00:01:38;7.20;;;6.05;;
14346;SDS011;7257;52.158;9.968;2022-08-19T00:02:01;7.28;;;5.90;;
14346;SDS011;7257;52.158;9.968;2022-08-19T00:02:22;7.28;;;5.88;;
14346;SDS011;7257;52.158;9.968;2022-08-19T00:02:43;7.95;;;6.30;;
14346;SDS011;7257;52.158;9.968;2022-08-19T00:03:05;7.90;;;6.25;;
14346;SDS011;7257;52.158;9.968;2022-08-19T00:03:28;7.40;;;5.95;;
14346;SDS011;7257;52.158;9.968;2022-08-19T00:03:48;6.57;;;5.95;;
14346;SDS011;7257;52.158;9.968;2022-08-19T00:04:10;7.18;;;6.35;;
14346;SDS011;7257;52.158;9.968;2022-08-19T00:04:34;8.85;;;6.15;;
14346;SDS011;7257;52.158;9.968;2022-08-19T00:04:56;8.98;;;5.47;;
14346;SDS011;7257;52.158;9.968;2022-08-19T00:05:18;8.15;;;5.15;;
14346;SDS011;7257;52.158;9.968;2022-08-19T00:05:40;6.97;;;5.15;;
14346;SDS011;7257;52.158;9.968;2022-08-19T00:06:02;6.75;;;5.65;;
14346;SDS011;7257;52.158;9.968;2022-08-19T00:06:24;6.28;;;5.60;;
14346;SDS011;7257;52.158;9.968;2022-08-19T00:06:46;6.93;;;5.63;;
14346;SDS011;7257;52.158;9.968;2022-08-19T00:07:07;7.28;;;5.57;;
14346;SDS011;7257;52.158;9.968;2022-08-19T00:07:29;7.22;;;5.82;;
14346;SDS011;7257;52.158;9.968;2022-08-19T00:07:50;6.15;;;5.22;;
14346;SDS011;7257;52.158;9.968;2022-08-19T00:08:11;6.60;;;5.07;;
14346;SDS011;7257;52.158;9.968;2022-08-19T00:08:32;6.78;;;5.20;;
14346;SDS011;7257;52.158;9.968;2022-08-19T00:08:53;6.57;;;5.50;;
14346;SDS011;7257;52.158;9.968;2022-08-19T00:09:16;6.90;;;6.13;;
14346;SDS011;7257;52.158;9.968;2022-08-19T00:09:37;8.25;;;6.00;;
14346;SDS011;7257;52.158;9.968;2022-08-19T00:09:58;10.25;;;5.65;;
14346;SDS011;7257;52.158;9.968;2022-08-19T00:10:20;11.35;;;5.22;;
14346;SDS011;7257;52.158;9.968;2022-08-19T00:10:42;9.90;;;5.70;;
14346;SDS011;7257;52.158;9.968;2022-08-19T00:11:03;8.60;;;5.85;;
14346;SDS011;7257;52.158;9.968;2022-08-19T00:11:24;7.47;;;5.80;;
14346;SDS011;7257;52.158;9.968;2022-08-19T00:11:47;8.18;;;6.10;;
14346;SDS011;7257;52.158;9.968;2022-08-19T00:12:10;9.07;;;5.93;;
14346;SDS011;7257;52.158;9.968;2022-08-19T00:12:31;7.85;;;5.78;;
14346;SDS011;7257;52.158;9.968;2022-08-19T00:12:52;6.88;;;5.65;;
14346;SDS011;7257;52.158;9.968;2022-08-19T00:13:13;6.15;;;5.55;;
14346;SDS011;7257;52.158;9.968;2022-08-19T00:13:35;6.15;;;5.55;;
14346;SDS011;7257;52.158;9.968;2022-08-19T00:13:58;5.85;;;5.35;;
14346;SDS011;7257;52.158;9.968;2022-08-19T00:14:20;6.90;;;6.18;;
14346;SDS011;7257;52.158;9.968;2022-08-19T00:14:44;7.65;;;6.40;;
14346;SDS011;7257;52.158;9.968;2022-08-19T00:15:06;8.32;;;5.97;;
14346;SDS011;7257;52.158;9.968;2022-08-19T00:15:31;8.63;;;5.90;;
14346;SDS011;7257;52.158;9.968;2022-08-19T00:15:52;7.95;;;5.82;;
14346;SDS011;7257;52.158;9.968;2022-08-19T00:16:13;8.98;;;6.20;;
14346;SDS011;7257;52.158;9.968;2022-08-19T00:16:34;7.68;;;6.32;;
14346;SDS011;7257;52.158;9.968;2022-08-19T00:16:55;7.22;;;6.10;;
14346;SDS011;7257;52.158;9.968;2022-08-19T00:17:17;7.10;;;5.78;;
14346;SDS011;7257;52.158;9.968;2022-08-19T00:17:38;7.60;;;5.55;;
14346;SDS011;7257;52.158;9.968;2022-08-19T00:18:00;8.23;;;5.65;;
14346;SDS011;7257;52.158;9.968;2022-08-19T00:18:20;7.05;;;5.80;;
14346;SDS011;7257;52.158;9.968;2022-08-19T00:18:42;7.05;;;5.78;;
14346;SDS011;7257;52.158;9.968;2022-08-19T00:19:03;7.72;;;5.80;;
14346;SDS011;7257;52.158;9.968;2022-08-19T00:19:25;8.10;;;6.20;;
14346;SDS011;7257;52.158;9.968;2022-08-19T00:19:46;8.50;;;6.32;;
14346;SDS011;7257;52.158;9.968;2022-08-19T00:20:08;7.55;;;6.63;;
14346;SDS011;7257;52.158;9.968;2022-08-19T00:20:30;7.00;;;6.30;;
14346;SDS011;7257;52.158;9.968;2022-08-19T00:20:51;7.57;;;6.70;;
14346;SDS011;7257;52.158;9.968;2022-08-19T00:21:12;8.32;;;6.68;;
14346;SDS011;7257;52.158;9.968;2022-08-19T00:21:34;8.65;;;6.40;;
14346;SDS011;7257;52.158;9.968;2022-08-19T00:21:58;6.82;;;5.55;;
14346;SDS011;7257;52.158;9.968;2022-08-19T00:22:19;6.78;;;5.20;;
14346;SDS011;7257;52.158;9.968;2022-08-19T00:22:40;7.20;;;5.33;;
14346;SDS011;7257;52.158;9.968;2022-08-19T00:23:02;5.93;;;5.07;;
14346;SDS011;7257;52.158;9.968;2022-08-19T00:23:23;5.20;;;4.70;;
14346;SDS011;7257;52.158;9.968;2022-08-19T00:23:44;5.07;;;4.57;;
14346;SDS011;7257;52.158;9.968;2022-08-19T00:24:05;5.45;;;4.93;;
14346;SDS011;7257;52.158;9.968;2022-08-19T00:24:26;5.82;;;5.03;;
14346;SDS011;7257;52.158;9.968;2022-08-19T00:24:48;6.35;;;4.97;;
14346;SDS011;7257;52.158;9.968;2022-08-19T00:25:09;7.80;;;5.45;;
14346;SDS011;7257;52.158;9.968;2022-08-19T00:25:31;9.00;;;5.85;;
14346;SDS011;7257;52.158;9.968;2022-08-19T00:25:52;9.07;;;6.03;;
14346;SDS011;7257;52.158;9.968;2022-08-19T00:26:14;7.03;;;5.45;;
14346;SDS011;7257;52.158;9.968;2022-08-19T00:26:34;6.78;;;5.60;;
14346;SDS011;7257;52.158;9.968;2022-08-19T00:26:56;7.90;;;5.65;;
14346;SDS011;7257;52.158;9.968;2022-08-19T00:27:18;9.10;;;6.00;;
14346;SDS011;7257;52.158;9.968;2022-08-19T00:27:40;9.10;;;6.18;;
14346;SDS011;7257;52.158;9.968;2022-08-19T00:28:01;8.50;;;5.93;;
14346;SDS011;7257;52.158;9.968;2022-08-19T00:28:22;6.65;;;5.65;;
14346;SDS011;7257;52.158;9.968;2022-08-19T00:28:43;6.65;;;5.50;;
14346;SDS011;7257;52.158;9.968;2022-08-19T00:29:04;6.73;;;5.70;;
14346;SDS011;7257;52.158;9.968;2022-08-19T00:29:30;7.10;;;6.13;;
14346;SDS011;7257;52.158;9.968;2022-08-19T00:29:53;6.80;;;6.10;;
14346;SDS011;7257;52.158;9.968;2022-08-19T00:30:14;6.82;;;6.10;;
14346;SDS011;7257;52.158;9.968;2022-08-19T00:30:35;7.82;;;5.45;;
14346;SDS011;7257;52.158;9.968;2022-08-19T00:30:57;8.48;;;5.90;;
14346;SDS011;7257;52.158;9.968;2022-08-19T00:31:18;8.30;;;6.37;;
14346;SDS011;7257;52.158;9.968;2022-08-19T00:31:39;7.45;;;6.75;;
14346;SDS011;7257;52.158;9.968;2022-08-19T00:32:01;7.00;;;6.05;;
14346;SDS011;7257;52.158;9.968;2022-08-19T00:32:24;6.47;;;5.63;;
14346;SDS011;7257;52.158;9.968;2022-08-19T00:32:45;6.95;;;5.47;;
14346;SDS011;7257;52.158;9.968;2022-08-19T00:33:06;6.13;;;5.53;;
14346;SDS011;7257;52.158;9.968;2022-08-19T00:33:28;6.75;;;5.70;;
14346;SDS011;7257;52.158;9.968;2022-08-19T00:33:52;7.75;;;5.50;;
14346;SDS011;7257;52.158;9.968;2022-08-19T00:34:13;7.70;;;5.20;;
14346;SDS011;7257;52.158;9.968;2022-08-19T00:34:35;7.35;;;5.35;;
14346;SDS011;7257;52.158;9.968;2022-08-19T00:34:55;8.10;;;5.80;;
14346;SDS011;7257;52.158;9.968;2022-08-19T00:35:17;8.45;;;5.82;;
14346;SDS011;7257;52.158;9.968;2022-08-19T00:35:39;8.80;;;5.97;;
14346;SDS011;7257;52.158;9.968;2022-08-19T00:36:00;7.43;;;5.80;;
14346;SDS011;7257;52.158;9.968;2022-08-19T00:36:21;7.50;;;6.05;;
14346;SDS011;7257;52.158;9.968;2022-08-19T00:36:42;6.50;;;5.90;;
14346;SDS011;7257;52.158;9.968;2022-08-19T00:37:04;6.20;;;5.63;;
14346;SDS011;7257;52.158;9.968;2022-08-19T00:37:25;5.75;;;5.25;;
14346;SDS011;7257;52.158;9.968;2022-08-19T00:37:47;5.65;;;5.15;;
14346;SDS011;7257;52.158;9.968;2022-08-19T00:38:09;6.10;;;5.50;;
14346;SDS011;7257;52.158;9.968;2022-08-19T00:38:30;6.40;;;5.70;;
14346;SDS011;7257;52.158;9.968;2022-08-19T00:38:51;6.78;;;5.90;;
14346;SDS011;7257;52.158;9.968;2022-08-19T00:39:13;6.70;;;5.72;;
14346;SDS011;7257;52.158;9.968;2022-08-19T00:39:36;7.32;;;5.78;;
14346;SDS011;7257;52.158;9.968;2022-08-19T00:39:57;8.00;;;6.20;;
14346;SDS011;7257;52.158;9.968;2022-08-19T00:40:18;7.72;;;6.05;;
14346;SDS011;7257;52.158;9.968;2022-08-19T00:40:42;6.50;;;5.80;;
14346;SDS011;7257;52.158;9.968;2022-08-19T00:41:06;6.50;;;5.80;;
14346;SDS011;7257;52.158;9.968;2022-08-19T00:41:27;6.20;;;5.60;;
14346;SDS011;7257;52.158;9.968;2022-08-19T00:41:50;7.15;;;5.75;;
14346;SDS011;7257;52.158;9.968;2022-08-19T00:42:11;8.40;;;6.28;;
14346;SDS011;7257;52.158;9.968;2022-08-19T00:42:35;9.13;;;6.60;;
14346;SDS011;7257;52.158;9.968;2022-08-19T00:42:56;7.38;;;6.03;;
14346;SDS011;7257;52.158;9.968;2022-08-19T00:43:18;7.07;;;6.03;;
14346;SDS011;7257;52.158;9.968;2022-08-19T00:43:41;6.93;;;5.45;;
14346;SDS011;7257;52.158;9.968;2022-08-19T00:44:03;6.35;;;5.25;;
14346;SDS011;7257;52.158;9.968;2022-08-19T00:44:28;5.97;;;5.35;;
14346;SDS011;7257;52.158;9.968;2022-08-19T00:44:49;6.45;;;5.50;;
14346;SDS011;7257;52.158;9.968;2022-08-19T00:45:14;6.07;;;5.40;;
14346;SDS011;7257;52.158;9.968;2022-08-19T00:45:41;6.20;;;5.20;;
14346;SDS011;7257;52.158;9.968;2022-08-19T00:46:03;5.78;;;5.18;;
14346;SDS011;7257;52.158;9.968;2022-08-19T00:46:24;6.28;;;5.20;;
14346;SDS011;7257;52.158;9.968;2022-08-19T00:46:46;6.28;;;5.32;;
14346;SDS011;7257;52.158;9.968;2022-08-19T00:47:09;6.65;;;5.88;;
14346;SDS011;7257;52.158;9.968;2022-08-19T00:47:31;7.30;;;5.95;;
14346;SDS011;7257;52.158;9.968;2022-08-19T00:47:52;7.47;;;5.65;;
14346;SDS011;7257;52.158;9.968;2022-08-19T00:48:13;7.50;;;5.55;;
14346;SDS011;7257;52.158;9.968;2022-08-19T00:48:36;7.78;;;5.85;;
14346;SDS011;7257;52.158;9.968;2022-08-19T00:48:57;7.32;;;5.90;;
14346;SDS011;7257;52.158;9.968;2022-08-19T00:49:20;7.15;;;5.68;;
14346;SDS011;7257;52.158;9.968;2022-08-19T00:49:46;6.53;;;5.30;;
14346;SDS011;7257;52.158;9.968;2022-08-19T00:50:11;6.80;;;5.82;;
14346;SDS011;7257;52.158;9.968;2022-08-19T00:50:35;6.60;;;5.82;;
14346;SDS011;7257;52.158;9.968;2022-08-19T00:51:00;6.15;;;5.55;;
14346;SDS011;7257;52.158;9.968;2022-08-19T00:51:21;5.93;;;5.43;;
14346;SDS011;7257;52.158;9.968;2022-08-19T00:51:44;5.72;;;4.88;;
14346;SDS011;7257;52.158;9.968;2022-08-19T00:52:08;6.65;;;5.10;;
14346;SDS011;7257;52.158;9.968;2022-08-19T00:52:34;7.38;;;5.68;;
14346;SDS011;7257;52.158;9.968;2022-08-19T00:52:57;6.82;;;5.10;;
14346;SDS011;7257;52.158;9.968;2022-08-19T00:53:20;6.82;;;4.72;;
14346;SDS011;7257;52.158;9.968;2022-08-19T00:53:43;7.22;;;5.05;;
14346;SDS011;7257;52.158;9.968;2022-08-19T00:54:05;8.07;;;5.80;;
14346;SDS011;7257;52.158;9.968;2022-08-19T00:54:26;8.37;;;6.20;;
14346;SDS011;7257;52.158;9.968;2022-08-19T00:54:48;7.50;;;6.50;;
14346;SDS011;7257;52.158;9.968;2022-08-19T00:55:13;5.90;;;5.30;;
14346;SDS011;7257;52.158;9.968;2022-08-19T00:55:38;6.68;;;5.47;;
14346;SDS011;7257;52.158;9.968;2022-08-19T00:56:00;8.52;;;5.75;;
14346;SDS011;7257;52.158;9.968;2022-08-19T00:56:22;8.48;;;5.85;;
14346;SDS011;7257;52.158;9.968;2022-08-19T00:56:43;8.35;;;5.68;;
14346;SDS011;7257;52.158;9.968;2022-08-19T00:57:06;7.70;;;5.93;;
14346;SDS011;7257;52.158;9.968;2022-08-19T00:57:32;8.02;;;5.80;;
14346;SDS011;7257;52.158;9.968;2022-08-19T00:57:59;6.68;;;5.40;;
14346;SDS011;7257;52.158;9.968;2022-08-19T00:58:28;7.13;;;5.80;;
14346;SDS011;7257;52.158;9.968;2022-08-19T00:58:52;6.10;;;5.45;;
14346;SDS011;7257;52.158;9.968;2022-08-19T00:59:16;5.63;;;5.03;;
14346;SDS011;7257;52.158;9.968;2022-08-19T00:59:39;6.20;;;5.60;;
14346;SDS011;7257;52.158;9.968;2022-08-19T01:00:03;7.40;;;5.95;;
14346;SDS011;7257;52.158;9.968;2022-08-19T01:00:28;7.88;;;5.88;;
14346;SDS011;7257;52.158;9.968;2022-08-19T01:00:51;6.75;;;5.10;;
14346;SDS011;7257;52.158;9.968;2022-08-19T01:01:13;7.30;;;4.93;;
14346;SDS011;7257;52.158;9.968;2022-08-19T01:01:34;7.40;;;4.72;;
14346;SDS011;7257;52.158;9.968;2022-08-19T01:01:55;9.10;;;5.35;;
14346;SDS011;7257;52.158;9.968;2022-08-19T01:02:18;7.63;;;6.03;;
14346;SDS011;7257;52.158;9.968;2022-08-19T01:02:39;7.85;;;5.95;;
14346;SDS011;7257;52.158;9.968;2022-08-19T01:03:01;6.43;;;5.38;;
14346;SDS011;7257;52.158;9.968;2022-08-19T01:03:23;6.53;;;5.35;;
14346;SDS011;7257;52.158;9.968;2022-08-19T01:03:44;6.38;;;5.78;;
14346;SDS011;7257;52.158;9.968;2022-08-19T01:04:06;6.53;;;5.93;;
14346;SDS011;7257;52.158;9.968;2022-08-19T01:04:27;7.47;;;5.65;;
14346;SDS011;7257;52.158;9.968;2022-08-19T01:04:48;7.43;;;5.07;;
14346;SDS011;7257;52.158;9.968;2022-08-19T01:05:09;7.05;;;4.57;;
14346;SDS011;7257;52.158;9.968;2022-08-19T01:05:35;6.85;;;4.75;;
14346;SDS011;7257;52.158;9.968;2022-08-19T01:05:56;7.32;;;5.00;;
14346;SDS011;7257;52.158;9.968;2022-08-19T01:06:17;6.15;;;4.95;;
14346;SDS011;7257;52.158;9.968;2022-08-19T01:06:39;7.40;;;5.47;;
14346;SDS011;7257;52.158;9.968;2022-08-19T01:07:02;7.60;;;5.47;;
14346;SDS011;7257;52.158;9.968;2022-08-19T01:07:23;8.88;;;5.88;;
14346;SDS011;7257;52.158;9.968;2022-08-19T01:07:44;8.68;;;5.65;;
14346;SDS011;7257;52.158;9.968;2022-08-19T01:08:06;8.75;;;5.68;;
14346;SDS011;7257;52.158;9.968;2022-08-19T01:08:27;7.22;;;5.22;;
14346;SDS011;7257;52.158;9.968;2022-08-19T01:08:49;5.97;;;5.30;;
14346;SDS011;7257;52.158;9.968;2022-08-19T01:09:10;6.72;;;5.35;;
14346;SDS011;7257;52.158;9.968;2022-08-19T01:09:31;6.65;;;5.38;;
14346;SDS011;7257;52.158;9.968;2022-08-19T01:09:52;5.65;;;4.85;;
14346;SDS011;7257;52.158;9.968;2022-08-19T01:10:16;6.15;;;5.05;;
14346;SDS011;7257;52.158;9.968;2022-08-19T01:10:40;7.38;;;5.30;;
14346;SDS011;7257;52.158;9.968;2022-08-19T01:11:04;8.00;;;5.45;;
14346;SDS011;7257;52.158;9.968;2022-08-19T01:11:26;8.40;;;5.82;;
14346;SDS011;7257;52.158;9.968;2022-08-19T01:11:48;7.32;;;5.13;;
14346;SDS011;7257;52.158;9.968;2022-08-19T01:12:11;6.82;;;4.63;;
14346;SDS011;7257;52.158;9.968;2022-08-19T01:12:32;4.70;;;4.13;;
14346;SDS011;7257;52.158;9.968;2022-08-19T01:12:54;5.05;;;4.55;;
14346;SDS011;7257;52.158;9.968;2022-08-19T01:13:18;5.90;;;4.40;;
14346;SDS011;7257;52.158;9.968;2022-08-19T01:13:43;6.38;;;4.32;;
14346;SDS011;7257;52.158;9.968;2022-08-19T01:14:05;7.55;;;5.30;;
14346;SDS011;7257;52.158;9.968;2022-08-19T01:14:27;8.32;;;5.70;;
14346;SDS011;7257;52.158;9.968;2022-08-19T01:14:48;7.70;;;5.70;;
14346;SDS011;7257;52.158;9.968;2022-08-19T01:15:12;6.88;;;4.68;;
14346;SDS011;7257;52.158;9.968;2022-08-19T01:15:38;6.13;;;4.80;;
14346;SDS011;7257;52.158;9.968;2022-08-19T01:16:02;7.28;;;5.10;;
14346;SDS011;7257;52.158;9.968;2022-08-19T01:16:25;8.63;;;5.80;;
14346;SDS011;7257;52.158;9.968;2022-08-19T01:16:49;7.22;;;5.57;;
14346;SDS011;7257;52.158;9.968;2022-08-19T01:17:14;6.85;;;5.28;;
14346;SDS011;7257;52.158;9.968;2022-08-19T01:17:36;6.45;;;4.88;;
14346;SDS011;7257;52.158;9.968;2022-08-19T01:18:00;8.52;;;5.28;;
14346;SDS011;7257;52.158;9.968;2022-08-19T01:18:26;8.32;;;5.90;;
14346;SDS011;7257;52.158;9.968;2022-08-19T01:18:48;6.47;;;5.88;;
14346;SDS011;7257;52.158;9.968;2022-08-19T01:19:10;6.38;;;5.75;;
14346;SDS011;7257;52.158;9.968;2022-08-19T01:19:38;6.18;;;5.50;;
14346;SDS011;7257;52.158;9.968;2022-08-19T01:20:03;6.57;;;5.30;;
14346;SDS011;7257;52.158;9.968;2022-08-19T01:20:25;6.28;;;5.00;;
14346;SDS011;7257;52.158;9.968;2022-08-19T01:20:46;6.45;;;5.43;;
14346;SDS011;7257;52.158;9.968;2022-08-19T01:21:09;7.25;;;6.00;;
14346;SDS011;7257;52.158;9.968;2022-08-19T01:21:48;7.65;;;5.88;;
14346;SDS011;7257;52.158;9.968;2022-08-19T01:22:15;5.65;;;4.68;;
14346;SDS011;7257;52.158;9.968;2022-08-19T01:22:45;6.57;;;5.15;;
14346;SDS011;7257;52.158;9.968;2022-08-19T01:23:09;7.20;;;5.25;;
14346;SDS011;7257;52.158;9.968;2022-08-19T01:23:31;5.65;;;4.90;;
14346;SDS011;7257;52.158;9.968;2022-08-19T01:24:02;6.30;;;4.80;;
14346;SDS011;7257;52.158;9.968;2022-08-19T01:24:25;7.68;;;5.00;;
14346;SDS011;7257;52.158;9.968;2022-08-19T01:24:46;8.30;;;5.53;;
14346;SDS011;7257;52.158;9.968;2022-08-19T01:25:07;8.27;;;6.20;;
14346;SDS011;7257;52.158;9.968;2022-08-19T01:25:29;7.78;;;6.05;;
14346;SDS011;7257;52.158;9.968;2022-08-19T01:25:55;5.60;;;4.88;;
14346;SDS011;7257;52.158;9.968;2022-08-19T01:26:18;6.72;;;4.82;;
14346;SDS011;7257;52.158;9.968;2022-08-19T01:26:42;6.13;;;4.90;;
14346;SDS011;7257;52.158;9.968;2022-08-19T01:27:03;6.22;;;4.90;;
14346;SDS011;7257;52.158;9.968;2022-08-19T01:27:25;6.07;;;5.47;;
14346;SDS011;7257;52.158;9.968;2022-08-19T01:27:48;6.55;;;5.95;;
14346;SDS011;7257;52.158;9.968;2022-08-19T01:28:14;6.40;;;5.72;;
14346;SDS011;7257;52.158;9.968;2022-08-19T01:28:36;5.80;;;4.85;;
14346;SDS011;7257;52.158;9.968;2022-08-19T01:28:59;5.10;;;4.43;;
14346;SDS011;7257;52.158;9.968;2022-08-19T01:29:21;6.00;;;5.28;;
14346;SDS011;7257;52.158;9.968;2022-08-19T01:29:43;6.38;;;5.47;;
14346;SDS011;7257;52.158;9.968;2022-08-19T01:30:05;6.60;;;5.43;;
14346;SDS011;7257;52.158;9.968;2022-08-19T01:30:29;6.20;;;5.28;;
14346;SDS011;7257;52.158;9.968;2022-08-19T01:30:53;6.95;;;5.30;;
14346;SDS011;7257;52.158;9.968;2022-08-19T01:31:17;6.63;;;5.00;;
14346;SDS011;7257;52.158;9.968;2022-08-19T01:31:40;7.90;;;4.80;;
14346;SDS011;7257;52.158;9.968;2022-08-19T01:32:01;7.45;;;5.07;;
14346;SDS011;7257;52.158;9.968;2022-08-19T01:32:22;6.90;;;5.60;;
14346;SDS011;7257;52.158;9.968;2022-08-19T01:32:44;7.00;;;6.38;;
14346;SDS011;7257;52.158;9.968;2022-08-19T01:33:05;7.97;;;6.70;;
14346;SDS011;7257;52.158;9.968;2022-08-19T01:33:26;7.97;;;6.00;;
14346;SDS011;7257;52.158;9.968;2022-08-19T01:33:46;8.88;;;5.55;;
14346;SDS011;7257;52.158;9.968;2022-08-19T01:34:08;7.55;;;5.25;;
14346;SDS011;7257;52.158;9.968;2022-08-19T01:34:30;7.88;;;6.00;;
14346;SDS011;7257;52.158;9.968;2022-08-19T01:34:54;6.60;;;5.80;;
14346;SDS011;7257;52.158;9.968;2022-08-19T01:35:15;7.28;;;5.32;;
14346;SDS011;7257;52.158;9.968;2022-08-19T01:35:37;6.88;;;4.72;;
14346;SDS011;7257;52.158;9.968;2022-08-19T01:36:03;8.07;;;4.68;;
14346;SDS011;7257;52.158;9.968;2022-08-19T01:36:28;8.02;;;5.10;;
14346;SDS011;7257;52.158;9.968;2022-08-19T01:36:51;6.68;;;5.20;;
14346;SDS011;7257;52.158;9.968;2022-08-19T01:37:13;6.75;;;5.30;;
14346;SDS011;7257;52.158;9.968;2022-08-19T01:37:44;8.30;;;5.70;;
14346;SDS011;7257;52.158;9.968;2022-08-19T01:38:07;7.45;;;5.80;;
14346;SDS011;7257;52.158;9.968;2022-08-19T01:38:30;6.80;;;6.00;;
14346;SDS011;7257;52.158;9.968;2022-08-19T01:38:56;6.47;;;5.45;;
14346;SDS011;7257;52.158;9.968;2022-08-19T01:39:20;6.25;;;5.13;;
14346;SDS011;7257;52.158;9.968;2022-08-19T01:39:43;5.93;;;5.10;;
14346;SDS011;7257;52.158;9.968;2022-08-19T01:40:05;6.40;;;5.40;;
14346;SDS011;7257;52.158;9.968;2022-08-19T01:40:28;6.30;;;5.55;;
14346;SDS011;7257;52.158;9.968;2022-08-19T01:40:52;8.80;;;5.40;;
14346;SDS011;7257;52.158;9.968;2022-08-19T01:41:14;8.02;;;5.32;;
14346;SDS011;7257;52.158;9.968;2022-08-19T01:41:35;6.70;;;4.93;;
14346;SDS011;7257;52.158;9.968;2022-08-19T01:41:56;5.38;;;4.82;;
14346;SDS011;7257;52.158;9.968;2022-08-19T01:42:18;5.57;;;4.75;;
14346;SDS011;7257;52.158;9.968;2022-08-19T01:42:39;6.03;;;5.40;;
14346;SDS011;7257;52.158;9.968;2022-08-19T01:43:01;6.90;;;5.55;;
14346;SDS011;7257;52.158;9.968;2022-08-19T01:43:23;7.25;;;5.75;;
14346;SDS011;7257;52.158;9.968;2022-08-19T01:43:44;7.05;;;5.43;;
14346;SDS011;7257;52.158;9.968;2022-08-19T01:44:07;6.00;;;5.32;;
14346;SDS011;7257;52.158;9.968;2022-08-19T01:44:29;6.35;;;5.60;;
14346;SDS011;7257;52.158;9.968;2022-08-19T01:44:50;6.10;;;5.38;;
14346;SDS011;7257;52.158;9.968;2022-08-19T01:45:11;6.05;;;5.15;;
14346;SDS011;7257;52.158;9.968;2022-08-19T01:45:33;6.05;;;5.15;;
14346;SDS011;7257;52.158;9.968;2022-08-19T01:45:55;7.43;;;5.55;;
14346;SDS011;7257;52.158;9.968;2022-08-19T01:46:16;8.40;;;5.90;;
14346;SDS011;7257;52.158;9.968;2022-08-19T01:46:37;8.10;;;5.78;;
14346;SDS011;7257;52.158;9.968;2022-08-19T01:46:59;6.57;;;5.85;;
14346;SDS011;7257;52.158;9.968;2022-08-19T01:47:20;6.60;;;5.90;;
14346;SDS011;7257;52.158;9.968;2022-08-19T01:47:41;6.32;;;5.65;;
14346;SDS011;7257;52.158;9.968;2022-08-19T01:48:02;5.93;;;4.97;;
14346;SDS011;7257;52.158;9.968;2022-08-19T01:48:25;5.93;;;4.90;;
14346;SDS011;7257;52.158;9.968;2022-08-19T01:48:46;7.40;;;5.38;;
14346;SDS011;7257;52.158;9.968;2022-08-19T01:49:07;8.68;;;6.20;;
14346;SDS011;7257;52.158;9.968;2022-08-19T01:49:29;8.50;;;5.88;;
14346;SDS011;7257;52.158;9.968;2022-08-19T01:49:51;7.22;;;5.63;;
14346;SDS011;7257;52.158;9.968;2022-08-19T01:50:12;6.50;;;5.30;;
14346;SDS011;7257;52.158;9.968;2022-08-19T01:50:34;6.90;;;5.60;;
14346;SDS011;7257;52.158;9.968;2022-08-19T01:50:56;7.30;;;5.63;;
14346;SDS011;7257;52.158;9.968;2022-08-19T01:51:18;7.05;;;5.55;;
14346;SDS011;7257;52.158;9.968;2022-08-19T01:51:38;7.07;;;5.20;;
14346;SDS011;7257;52.158;9.968;2022-08-19T01:51:59;7.00;;;5.30;;
14346;SDS011;7257;52.158;9.968;2022-08-19T01:52:20;5.85;;;4.82;;
14346;SDS011;7257;52.158;9.968;2022-08-19T01:52:42;6.80;;;4.97;;
14346;SDS011;7257;52.158;9.968;2022-08-19T01:53:08;6.45;;;5.13;;
14346;SDS011;7257;52.158;9.968;2022-08-19T01:53:31;7.50;;;5.90;;
14346;SDS011;7257;52.158;9.968;2022-08-19T01:53:53;7.47;;;5.97;;
14346;SDS011;7257;52.158;9.968;2022-08-19T01:54:15;7.25;;;5.50;;
14346;SDS011;7257;52.158;9.968;2022-08-19T01:54:38;6.75;;;4.93;;
14346;SDS011;7257;52.158;9.968;2022-08-19T01:54:59;7.28;;;4.70;;
14346;SDS011;7257;52.158;9.968;2022-08-19T01:55:21;7.03;;;4.63;;
14346;SDS011;7257;52.158;9.968;2022-08-19T01:55:43;6.80;;;5.18;;
14346;SDS011;7257;52.158;9.968;2022-08-19T01:56:05;6.57;;;5.53;;
14346;SDS011;7257;52.158;9.968;2022-08-19T01:56:28;7.03;;;5.93;;
14346;SDS011;7257;52.158;9.968;2022-08-19T01:56:49;7.75;;;5.97;;
14346;SDS011;7257;52.158;9.968;2022-08-19T01:57:12;8.05;;;5.82;;
14346;SDS011;7257;52.158;9.968;2022-08-19T01:57:35;7.53;;;5.53;;
14346;SDS011;7257;52.158;9.968;2022-08-19T01:57:58;6.18;;;5.50;;
14346;SDS011;7257;52.158;9.968;2022-08-19T01:58:22;7.25;;;5.50;;
14346;SDS011;7257;52.158;9.968;2022-08-19T01:58:47;7.63;;;5.72;;
14346;SDS011;7257;52.158;9.968;2022-08-19T01:59:17;7.03;;;5.65;;
14346;SDS011;7257;52.158;9.968;2022-08-19T01:59:41;5.43;;;4.90;;
14346;SDS011;7257;52.158;9.968;2022-08-19T02:00:04;5.90;;;4.57;;
14346;SDS011;7257;52.158;9.968;2022-08-19T02:00:28;6.82;;;5.20;;
14346;SDS011;7257;52.158;9.968;2022-08-19T02:00:51;7.32;;;5.82;;
14346;SDS011;7257;52.158;9.968;2022-08-19T02:01:13;7.50;;;6.07;;
14346;SDS011;7257;52.158;9.968;2022-08-19T02:01:34;6.57;;;5.27;;
14346;SDS011;7257;52.158;9.968;2022-08-19T02:01:55;6.55;;;4.75;;
14346;SDS011;7257;52.158;9.968;2022-08-19T02:02:16;6.13;;;4.88;;
14346;SDS011;7257;52.158;9.968;2022-08-19T02:02:38;6.93;;;5.50;;
14346;SDS011;7257;52.158;9.968;2022-08-19T02:02:59;6.47;;;5.55;;
14346;SDS011;7257;52.158;9.968;2022-08-19T02:03:21;5.97;;;5.32;;
14346;SDS011;7257;52.158;9.968;2022-08-19T02:03:42;6.40;;;5.80;;
14346;SDS011;7257;52.158;9.968;2022-08-19T02:04:05;6.95;;;6.25;;
14346;SDS011;7257;52.158;9.968;2022-08-19T02:04:26;7.10;;;5.68;;
14346;SDS011;7257;52.158;9.968;2022-08-19T02:04:47;7.38;;;5.10;;
14346;SDS011;7257;52.158;9.968;2022-08-19T02:05:08;7.18;;;4.72;;
14346;SDS011;7257;52.158;9.968;2022-08-19T02:05:31;7.10;;;5.22;;
14346;SDS011;7257;52.158;9.968;2022-08-19T02:05:54;6.90;;;5.10;;
14346;SDS011;7257;52.158;9.968;2022-08-19T02:06:15;6.32;;;4.82;;
14346;SDS011;7257;52.158;9.968;2022-08-19T02:06:37;6.32;;;5.20;;
14346;SDS011;7257;52.158;9.968;2022-08-19T02:06:58;6.63;;;5.65;;
14346;SDS011;7257;52.158;9.968;2022-08-19T02:07:20;6.90;;;5.72;;
14346;SDS011;7257;52.158;9.968;2022-08-19T02:07:41;6.57;;;5.40;;
14346;SDS011;7257;52.158;9.968;2022-08-19T02:08:02;7.55;;;5.00;;
14346;SDS011;7257;52.158;9.968;2022-08-19T02:08:24;8.02;;;4.60;;
14346;SDS011;7257;52.158;9.968;2022-08-19T02:08:46;7.90;;;4.97;;
14346;SDS011;7257;52.158;9.968;2022-08-19T02:09:09;5.13;;;4.63;;
14346;SDS011;7257;52.158;9.968;2022-08-19T02:09:30;5.57;;;5.07;;
14346;SDS011;7257;52.158;9.968;2022-08-19T02:09:51;5.80;;;5.30;;
14346;SDS011;7257;52.158;9.968;2022-08-19T02:10:13;6.72;;;6.03;;
14346;SDS011;7257;52.158;9.968;2022-08-19T02:10:38;7.55;;;5.32;;
14346;SDS011;7257;52.158;9.968;2022-08-19T02:11:00;7.82;;;4.93;;
14346;SDS011;7257;52.158;9.968;2022-08-19T02:11:22;6.97;;;4.80;;
14346;SDS011;7257;52.158;9.968;2022-08-19T02:11:47;5.68;;;5.07;;
14346;SDS011;7257;52.158;9.968;2022-08-19T02:12:09;6.03;;;5.45;;
14346;SDS011;7257;52.158;9.968;2022-08-19T02:12:30;6.60;;;6.00;;
14346;SDS011;7257;52.158;9.968;2022-08-19T02:12:51;6.60;;;6.00;;
14346;SDS011;7257;52.158;9.968;2022-08-19T02:13:12;7.53;;;6.33;;
14346;SDS011;7257;52.158;9.968;2022-08-19T02:13:34;7.35;;;5.55;;
14346;SDS011;7257;52.158;9.968;2022-08-19T02:13:55;6.85;;;5.20;;
14346;SDS011;7257;52.158;9.968;2022-08-19T02:14:18;6.00;;;4.78;;
14346;SDS011;7257;52.158;9.968;2022-08-19T02:14:39;6.47;;;5.05;;
14346;SDS011;7257;52.158;9.968;2022-08-19T02:15:00;6.53;;;5.07;;
14346;SDS011;7257;52.158;9.968;2022-08-19T02:15:24;7.70;;;5.43;;
14346;SDS011;7257;52.158;9.968;2022-08-19T02:15:45;7.97;;;6.00;;
14346;SDS011;7257;52.158;9.968;2022-08-19T02:16:06;9.13;;;6.25;;
14346;SDS011;7257;52.158;9.968;2022-08-19T02:16:27;8.43;;;6.03;;
14346;SDS011;7257;52.158;9.968;2022-08-19T02:16:50;10.40;;;5.60;;